sensor_id;sensor_type;location;lat;lon;timestamp;P1;durP1;ratioP1;P2;durP2;ratioP2
72785;SDS011;60902;53.876;10.674;2023-05-02T00:00:02;12.35;;;7.60;;
72785;SDS011;60902;53.876;10.674;2023-05-02T00:00:14;11.13;;;7.70;;
72785;SDS011;60902;53.876;10.674;2023-05-02T00:00:25;11.48;;;7.22;;
72785;SDS011;60902;53.876;10.674;2023-05-02T00:00:36;12.13;;;7.20;;
72785;SDS011;60902;53.876;10.674;2023-05-02T00:00:47;12.05;;;7.25;;
72785;SDS011;60902;53.876;10.674;2023-05-02T00:00:58;11.38;;;7.35;;
72785;SDS011;60902;53.876;10.674;2023-05-02T00:01:14;13.80;;;7.40;;
72785;SDS011;60902;53.876;10.674;2023-05-02T00:01:25;15.15;;;7.45;;
72785;SDS011;60902;53.876;10.674;2023-05-02T00:01:36;14.55;;;7.15;;
72785;SDS011;60902;53.876;10.674;2023-05-02T00:01:47;14.40;;;7.35;;
72785;SDS011;60902;53.876;10.674;2023-05-02T00:01:58;15.32;;;7.70;;
72785;SDS011;60902;53.876;10.674;2023-05-02T00:02:09;14.30;;;7.95;;
72785;SDS011;60902;53.876;10.674;2023-05-02T00:02:21;12.75;;;7.60;;
72785;SDS011;60902;53.876;10.674;2023-05-02T00:02:33;12.82;;;7.70;;
72785;SDS011;60902;53.876;10.674;2023-05-02T00:02:45;13.48;;;7.32;;
72785;SDS011;60902;53.876;10.674;2023-05-02T00:02:56;13.02;;;7.32;;
72785;SDS011;60902;53.876;10.674;2023-05-02T00:03:07;12.60;;;7.43;;
72785;SDS011;60902;53.876;10.674;2023-05-02T00:03:18;13.15;;;8.00;;
72785;SDS011;60902;53.876;10.674;2023-05-02T00:03:29;13.88;;;8.40;;
72785;SDS011;60902;53.876;10.674;2023-05-02T00:03:41;14.05;;;8.55;;
72785;SDS011;60902;53.876;10.674;2023-05-02T00:03:52;14.43;;;8.40;;
72785;SDS011;60902;53.876;10.674;2023-05-02T00:04:04;13.98;;;8.35;;
72785;SDS011;60902;53.876;10.674;2023-05-02T00:04:15;14.10;;;8.40;;
72785;SDS011;60902;53.876;10.674;2023-05-02T00:04:26;13.35;;;8.20;;
72785;SDS011;60902;53.876;10.674;2023-05-02T00:04:38;13.43;;;8.10;;
72785;SDS011;60902;53.876;10.674;2023-05-02T00:04:49;12.90;;;8.10;;
72785;SDS011;60902;53.876;10.674;2023-05-02T00:05:00;14.43;;;8.38;;
72785;SDS011;60902;53.876;10.674;2023-05-02T00:05:11;14.90;;;8.32;;
72785;SDS011;60902;53.876;10.674;2023-05-02T00:05:22;15.05;;;8.80;;
72785;SDS011;60902;53.876;10.674;2023-05-02T00:05:34;13.95;;;8.73;;
72785;SDS011;60902;53.876;10.674;2023-05-02T00:05:45;14.20;;;8.73;;
72785;SDS011;60902;53.876;10.674;2023-05-02T00:05:56;14.02;;;8.00;;
72785;SDS011;60902;53.876;10.674;2023-05-02T00:06:08;13.98;;;7.93;;
72785;SDS011;60902;53.876;10.674;2023-05-02T00:06:21;12.55;;;7.78;;
72785;SDS011;60902;53.876;10.674;2023-05-02T00:06:33;12.45;;;8.27;;
72785;SDS011;60902;53.876;10.674;2023-05-02T00:06:44;13.05;;;8.43;;
72785;SDS011;60902;53.876;10.674;2023-05-02T00:06:55;13.68;;;8.48;;
72785;SDS011;60902;53.876;10.674;2023-05-02T00:07:07;14.82;;;8.38;;
72785;SDS011;60902;53.876;10.674;2023-05-02T00:07:18;15.03;;;8.13;;
72785;SDS011;60902;53.876;10.674;2023-05-02T00:07:29;14.77;;;7.97;;
72785;SDS011;60902;53.876;10.674;2023-05-02T00:07:40;13.70;;;8.20;;
72785;SDS011;60902;53.876;10.674;2023-05-02T00:07:53;14.10;;;8.82;;
72785;SDS011;60902;53.876;10.674;2023-05-02T00:08:04;14.43;;;8.80;;
72785;SDS011;60902;53.876;10.674;2023-05-02T00:08:15;14.75;;;8.60;;
72785;SDS011;60902;53.876;10.674;2023-05-02T00:08:26;14.02;;;8.00;;
72785;SDS011;60902;53.876;10.674;2023-05-02T00:08:37;14.20;;;8.25;;
72785;SDS011;60902;53.876;10.674;2023-05-02T00:08:48;13.38;;;8.15;;
72785;SDS011;60902;53.876;10.674;2023-05-02T00:08:58;13.25;;;8.20;;
72785;SDS011;60902;53.876;10.674;2023-05-02T00:09:09;13.98;;;8.57;;
72785;SDS011;60902;53.876;10.674;2023-05-02T00:09:20;14.80;;;8.95;;
72785;SDS011;60902;53.876;10.674;2023-05-02T00:09:33;14.60;;;8.82;;
72785;SDS011;60902;53.876;10.674;2023-05-02T00:09:43;14.23;;;8.73;;
72785;SDS011;60902;53.876;10.674;2023-05-02T00:09:54;14.23;;;8.30;;
72785;SDS011;60902;53.876;10.674;2023-05-02T00:10:05;13.43;;;8.07;;
72785;SDS011;60902;53.876;10.674;2023-05-02T00:10:17;12.77;;;8.02;;
72785;SDS011;60902;53.876;10.674;2023-05-02T00:10:28;12.73;;;8.15;;
72785;SDS011;60902;53.876;10.674;2023-05-02T00:10:39;12.73;;;8.07;;
72785;SDS011;60902;53.876;10.674;2023-05-02T00:10:51;13.35;;;8.80;;
72785;SDS011;60902;53.876;10.674;2023-05-02T00:11:02;14.18;;;9.32;;
72785;SDS011;60902;53.876;10.674;2023-05-02T00:11:13;14.55;;;8.82;;
72785;SDS011;60902;53.876;10.674;2023-05-02T00:11:24;14.15;;;8.45;;
72785;SDS011;60902;53.876;10.674;2023-05-02T00:11:35;14.15;;;8.18;;
72785;SDS011;60902;53.876;10.674;2023-05-02T00:11:46;14.38;;;8.60;;
72785;SDS011;60902;53.876;10.674;2023-05-02T00:11:58;14.10;;;8.63;;
72785;SDS011;60902;53.876;10.674;2023-05-02T00:12:10;14.45;;;9.15;;
72785;SDS011;60902;53.876;10.674;2023-05-02T00:12:21;15.35;;;8.77;;
72785;SDS011;60902;53.876;10.674;2023-05-02T00:12:32;15.73;;;8.93;;
72785;SDS011;60902;53.876;10.674;2023-05-02T00:12:43;15.07;;;8.68;;
72785;SDS011;60902;53.876;10.674;2023-05-02T00:12:54;13.60;;;8.63;;
72785;SDS011;60902;53.876;10.674;2023-05-02T00:13:05;14.05;;;8.70;;
72785;SDS011;60902;53.876;10.674;2023-05-02T00:13:18;13.80;;;8.50;;
72785;SDS011;60902;53.876;10.674;2023-05-02T00:13:28;14.80;;;8.70;;
72785;SDS011;60902;53.876;10.674;2023-05-02T00:13:39;15.73;;;8.60;;
72785;SDS011;60902;53.876;10.674;2023-05-02T00:13:50;15.90;;;8.95;;
72785;SDS011;60902;53.876;10.674;2023-05-02T00:14:01;15.77;;;9.00;;
72785;SDS011;60902;53.876;10.674;2023-05-02T00:14:12;16.08;;;9.02;;
72785;SDS011;60902;53.876;10.674;2023-05-02T00:14:23;15.43;;;8.82;;
72785;SDS011;60902;53.876;10.674;2023-05-02T00:14:35;15.35;;;8.68;;
72785;SDS011;60902;53.876;10.674;2023-05-02T00:14:46;15.20;;;8.57;;
72785;SDS011;60902;53.876;10.674;2023-05-02T00:14:57;15.40;;;8.55;;
72785;SDS011;60902;53.876;10.674;2023-05-02T00:15:08;15.93;;;9.23;;
72785;SDS011;60902;53.876;10.674;2023-05-02T00:15:20;16.63;;;9.25;;
72785;SDS011;60902;53.876;10.674;2023-05-02T00:15:31;17.77;;;9.48;;
72785;SDS011;60902;53.876;10.674;2023-05-02T00:15:42;18.25;;;9.18;;
72785;SDS011;60902;53.876;10.674;2023-05-02T00:15:53;16.13;;;9.07;;
72785;SDS011;60902;53.876;10.674;2023-05-02T00:16:05;15.60;;;9.23;;
72785;SDS011;60902;53.876;10.674;2023-05-02T00:16:17;15.60;;;9.05;;
72785;SDS011;60902;53.876;10.674;2023-05-02T00:16:27;16.00;;;9.38;;
72785;SDS011;60902;53.876;10.674;2023-05-02T00:16:38;15.77;;;9.60;;
72785;SDS011;60902;53.876;10.674;2023-05-02T00:16:50;14.77;;;9.45;;
72785;SDS011;60902;53.876;10.674;2023-05-02T00:17:01;14.48;;;9.18;;
72785;SDS011;60902;53.876;10.674;2023-05-02T00:17:15;14.07;;;8.98;;
72785;SDS011;60902;53.876;10.674;2023-05-02T00:17:27;15.50;;;9.18;;
72785;SDS011;60902;53.876;10.674;2023-05-02T00:17:40;16.15;;;9.35;;
72785;SDS011;60902;53.876;10.674;2023-05-02T00:17:51;16.38;;;9.68;;
72785;SDS011;60902;53.876;10.674;2023-05-02T00:18:02;15.98;;;10.13;;
72785;SDS011;60902;53.876;10.674;2023-05-02T00:18:13;14.88;;;9.70;;
72785;SDS011;60902;53.876;10.674;2023-05-02T00:18:24;13.48;;;8.88;;
72785;SDS011;60902;53.876;10.674;2023-05-02T00:18:35;14.90;;;8.85;;
72785;SDS011;60902;53.876;10.674;2023-05-02T00:18:47;15.85;;;9.07;;
72785;SDS011;60902;53.876;10.674;2023-05-02T00:18:58;16.17;;;9.38;;
72785;SDS011;60902;53.876;10.674;2023-05-02T00:19:09;14.77;;;9.30;;
72785;SDS011;60902;53.876;10.674;2023-05-02T00:19:20;14.93;;;9.50;;
72785;SDS011;60902;53.876;10.674;2023-05-02T00:19:31;14.90;;;9.55;;
72785;SDS011;60902;53.876;10.674;2023-05-02T00:19:46;16.00;;;9.60;;
72785;SDS011;60902;53.876;10.674;2023-05-02T00:19:57;16.13;;;9.52;;
72785;SDS011;60902;53.876;10.674;2023-05-02T00:20:09;14.88;;;9.48;;
72785;SDS011;60902;53.876;10.674;2023-05-02T00:20:20;14.20;;;9.43;;
72785;SDS011;60902;53.876;10.674;2023-05-02T00:20:33;15.60;;;9.55;;
72785;SDS011;60902;53.876;10.674;2023-05-02T00:20:44;16.15;;;9.85;;
72785;SDS011;60902;53.876;10.674;2023-05-02T00:20:55;16.80;;;10.05;;
72785;SDS011;60902;53.876;10.674;2023-05-02T00:21:05;17.15;;;10.27;;
72785;SDS011;60902;53.876;10.674;2023-05-02T00:21:17;17.83;;;10.23;;
72785;SDS011;60902;53.876;10.674;2023-05-02T00:21:28;17.23;;;9.82;;
72785;SDS011;60902;53.876;10.674;2023-05-02T00:21:39;16.08;;;9.38;;
72785;SDS011;60902;53.876;10.674;2023-05-02T00:21:50;14.50;;;8.98;;
72785;SDS011;60902;53.876;10.674;2023-05-02T00:22:02;14.85;;;8.98;;
72785;SDS011;60902;53.876;10.674;2023-05-02T00:22:13;15.98;;;9.50;;
72785;SDS011;60902;53.876;10.674;2023-05-02T00:22:24;17.38;;;9.45;;
72785;SDS011;60902;53.876;10.674;2023-05-02T00:22:35;17.90;;;10.10;;
72785;SDS011;60902;53.876;10.674;2023-05-02T00:22:46;18.60;;;10.30;;
72785;SDS011;60902;53.876;10.674;2023-05-02T00:22:58;17.83;;;10.35;;
72785;SDS011;60902;53.876;10.674;2023-05-02T00:23:09;17.20;;;9.98;;
72785;SDS011;60902;53.876;10.674;2023-05-02T00:23:21;15.90;;;9.82;;
72785;SDS011;60902;53.876;10.674;2023-05-02T00:23:33;15.30;;;9.95;;
72785;SDS011;60902;53.876;10.674;2023-05-02T00:23:44;16.35;;;10.02;;
72785;SDS011;60902;53.876;10.674;2023-05-02T00:23:55;17.03;;;10.43;;
72785;SDS011;60902;53.876;10.674;2023-05-02T00:24:06;17.03;;;10.27;;
72785;SDS011;60902;53.876;10.674;2023-05-02T00:24:17;16.88;;;10.35;;
72785;SDS011;60902;53.876;10.674;2023-05-02T00:24:28;16.60;;;10.27;;
72785;SDS011;60902;53.876;10.674;2023-05-02T00:24:39;16.90;;;10.45;;
72785;SDS011;60902;53.876;10.674;2023-05-02T00:24:54;16.60;;;10.43;;
72785;SDS011;60902;53.876;10.674;2023-05-02T00:25:07;16.70;;;9.63;;
72785;SDS011;60902;53.876;10.674;2023-05-02T00:25:18;17.02;;;9.50;;
72785;SDS011;60902;53.876;10.674;2023-05-02T00:25:29;17.98;;;9.90;;
72785;SDS011;60902;53.876;10.674;2023-05-02T00:25:43;17.05;;;10.25;;
72785;SDS011;60902;53.876;10.674;2023-05-02T00:25:54;17.00;;;10.18;;
72785;SDS011;60902;53.876;10.674;2023-05-02T00:26:07;16.50;;;9.57;;
72785;SDS011;60902;53.876;10.674;2023-05-02T00:26:18;15.52;;;9.60;;
72785;SDS011;60902;53.876;10.674;2023-05-02T00:26:31;17.63;;;10.70;;
72785;SDS011;60902;53.876;10.674;2023-05-02T00:26:42;17.33;;;10.57;;
72785;SDS011;60902;53.876;10.674;2023-05-02T00:26:53;17.95;;;10.70;;
72785;SDS011;60902;53.876;10.674;2023-05-02T00:27:04;15.90;;;10.50;;
72785;SDS011;60902;53.876;10.674;2023-05-02T00:27:16;15.10;;;9.65;;
72785;SDS011;60902;53.876;10.674;2023-05-02T00:27:28;14.88;;;9.45;;
72785;SDS011;60902;53.876;10.674;2023-05-02T00:27:39;14.73;;;9.43;;
72785;SDS011;60902;53.876;10.674;2023-05-02T00:27:50;15.82;;;9.60;;
72785;SDS011;60902;53.876;10.674;2023-05-02T00:28:03;15.98;;;9.73;;
72785;SDS011;60902;53.876;10.674;2023-05-02T00:28:14;16.33;;;10.10;;
72785;SDS011;60902;53.876;10.674;2023-05-02T00:28:25;17.90;;;11.07;;
72785;SDS011;60902;53.876;10.674;2023-05-02T00:28:36;18.10;;;11.60;;
72785;SDS011;60902;53.876;10.674;2023-05-02T00:28:46;18.30;;;11.93;;
72785;SDS011;60902;53.876;10.674;2023-05-02T00:28:57;17.67;;;11.67;;
72785;SDS011;60902;53.876;10.674;2023-05-02T00:29:08;17.42;;;11.65;;
72785;SDS011;60902;53.876;10.674;2023-05-02T00:29:19;19.30;;;11.82;;
72785;SDS011;60902;53.876;10.674;2023-05-02T00:29:30;19.13;;;11.27;;
72785;SDS011;60902;53.876;10.674;2023-05-02T00:29:41;19.30;;;10.73;;
72785;SDS011;60902;53.876;10.674;2023-05-02T00:29:53;18.20;;;10.43;;
72785;SDS011;60902;53.876;10.674;2023-05-02T00:30:04;17.98;;;11.07;;
72785;SDS011;60902;53.876;10.674;2023-05-02T00:30:17;17.67;;;11.02;;
72785;SDS011;60902;53.876;10.674;2023-05-02T00:30:30;16.92;;;10.95;;
72785;SDS011;60902;53.876;10.674;2023-05-02T00:30:41;16.23;;;10.98;;
72785;SDS011;60902;53.876;10.674;2023-05-02T00:30:53;17.67;;;11.43;;
72785;SDS011;60902;53.876;10.674;2023-05-02T00:31:04;18.67;;;11.53;;
72785;SDS011;60902;53.876;10.674;2023-05-02T00:31:16;19.10;;;11.48;;
72785;SDS011;60902;53.876;10.674;2023-05-02T00:31:28;17.13;;;11.30;;
72785;SDS011;60902;53.876;10.674;2023-05-02T00:31:39;16.23;;;11.32;;
72785;SDS011;60902;53.876;10.674;2023-05-02T00:31:50;17.67;;;11.80;;
72785;SDS011;60902;53.876;10.674;2023-05-02T00:32:01;18.75;;;11.70;;
72785;SDS011;60902;53.876;10.674;2023-05-02T00:32:12;17.80;;;11.30;;
72785;SDS011;60902;53.876;10.674;2023-05-02T00:32:23;17.10;;;11.10;;
72785;SDS011;60902;53.876;10.674;2023-05-02T00:32:34;16.10;;;10.95;;
72785;SDS011;60902;53.876;10.674;2023-05-02T00:32:48;15.98;;;11.00;;
72785;SDS011;60902;53.876;10.674;2023-05-02T00:32:59;17.52;;;11.52;;
72785;SDS011;60902;53.876;10.674;2023-05-02T00:33:10;18.15;;;11.48;;
72785;SDS011;60902;53.876;10.674;2023-05-02T00:33:22;18.15;;;11.52;;
72785;SDS011;60902;53.876;10.674;2023-05-02T00:33:33;18.38;;;11.45;;
72785;SDS011;60902;53.876;10.674;2023-05-02T00:33:44;18.27;;;11.45;;
72785;SDS011;60902;53.876;10.674;2023-05-02T00:33:56;18.40;;;11.20;;
72785;SDS011;60902;53.876;10.674;2023-05-02T00:34:07;17.02;;;10.65;;
72785;SDS011;60902;53.876;10.674;2023-05-02T00:34:18;16.65;;;10.50;;
72785;SDS011;60902;53.876;10.674;2023-05-02T00:34:29;17.50;;;11.32;;
72785;SDS011;60902;53.876;10.674;2023-05-02T00:34:40;18.00;;;11.35;;
72785;SDS011;60902;53.876;10.674;2023-05-02T00:34:51;18.00;;;11.63;;
72785;SDS011;60902;53.876;10.674;2023-05-02T00:35:03;17.60;;;11.00;;
72785;SDS011;60902;53.876;10.674;2023-05-02T00:35:14;17.52;;;11.10;;
72785;SDS011;60902;53.876;10.674;2023-05-02T00:35:26;18.52;;;11.30;;
72785;SDS011;60902;53.876;10.674;2023-05-02T00:35:37;18.38;;;11.15;;
72785;SDS011;60902;53.876;10.674;2023-05-02T00:35:48;19.30;;;11.60;;
72785;SDS011;60902;53.876;10.674;2023-05-02T00:36:00;18.13;;;11.43;;
72785;SDS011;60902;53.876;10.674;2023-05-02T00:36:13;16.47;;;11.03;;
72785;SDS011;60902;53.876;10.674;2023-05-02T00:36:25;16.10;;;10.95;;
72785;SDS011;60902;53.876;10.674;2023-05-02T00:36:36;17.02;;;11.38;;
72785;SDS011;60902;53.876;10.674;2023-05-02T00:36:47;18.83;;;11.82;;
72785;SDS011;60902;53.876;10.674;2023-05-02T00:36:59;19.50;;;12.05;;
72785;SDS011;60902;53.876;10.674;2023-05-02T00:37:10;18.33;;;12.00;;
72785;SDS011;60902;53.876;10.674;2023-05-02T00:37:24;16.98;;;11.60;;
72785;SDS011;60902;53.876;10.674;2023-05-02T00:37:36;15.93;;;10.75;;
72785;SDS011;60902;53.876;10.674;2023-05-02T00:37:48;16.80;;;10.65;;
72785;SDS011;60902;53.876;10.674;2023-05-02T00:38:00;18.65;;;11.10;;
72785;SDS011;60902;53.876;10.674;2023-05-02T00:38:10;18.80;;;11.10;;
72785;SDS011;60902;53.876;10.674;2023-05-02T00:38:22;18.85;;;10.77;;
72785;SDS011;60902;53.876;10.674;2023-05-02T00:38:33;17.80;;;10.65;;
72785;SDS011;60902;53.876;10.674;2023-05-02T00:38:44;16.52;;;10.60;;
72785;SDS011;60902;53.876;10.674;2023-05-02T00:38:55;15.60;;;11.05;;
72785;SDS011;60902;53.876;10.674;2023-05-02T00:39:06;15.97;;;10.77;;
72785;SDS011;60902;53.876;10.674;2023-05-02T00:39:17;16.08;;;11.27;;
72785;SDS011;60902;53.876;10.674;2023-05-02T00:39:28;18.10;;;12.05;;
72785;SDS011;60902;53.876;10.674;2023-05-02T00:39:39;19.05;;;12.60;;
72785;SDS011;60902;53.876;10.674;2023-05-02T00:39:51;19.75;;;12.23;;
72785;SDS011;60902;53.876;10.674;2023-05-02T00:40:02;19.00;;;11.80;;
72785;SDS011;60902;53.876;10.674;2023-05-02T00:40:14;20.08;;;12.45;;
72785;SDS011;60902;53.876;10.674;2023-05-02T00:40:25;19.20;;;12.80;;
72785;SDS011;60902;53.876;10.674;2023-05-02T00:40:45;18.27;;;12.55;;
72785;SDS011;60902;53.876;10.674;2023-05-02T00:40:57;17.48;;;11.40;;
72785;SDS011;60902;53.876;10.674;2023-05-02T00:41:07;16.57;;;10.83;;
72785;SDS011;60902;53.876;10.674;2023-05-02T00:41:19;15.18;;;9.85;;
72785;SDS011;60902;53.876;10.674;2023-05-02T00:41:31;15.90;;;10.60;;
72785;SDS011;60902;53.876;10.674;2023-05-02T00:41:42;17.38;;;12.02;;
72785;SDS011;60902;53.876;10.674;2023-05-02T00:41:56;17.55;;;12.10;;
72785;SDS011;60902;53.876;10.674;2023-05-02T00:42:07;16.98;;;11.40;;
72785;SDS011;60902;53.876;10.674;2023-05-02T00:42:18;17.27;;;11.65;;
72785;SDS011;60902;53.876;10.674;2023-05-02T00:42:31;17.35;;;11.63;;
72785;SDS011;60902;53.876;10.674;2023-05-02T00:42:45;17.17;;;11.38;;
72785;SDS011;60902;53.876;10.674;2023-05-02T00:42:56;17.73;;;12.02;;
72785;SDS011;60902;53.876;10.674;2023-05-02T00:43:07;18.17;;;12.65;;
72785;SDS011;60902;53.876;10.674;2023-05-02T00:43:18;18.95;;;12.70;;
72785;SDS011;60902;53.876;10.674;2023-05-02T00:43:30;19.92;;;12.85;;
72785;SDS011;60902;53.876;10.674;2023-05-02T00:43:41;21.45;;;13.20;;
72785;SDS011;60902;53.876;10.674;2023-05-02T00:43:52;20.63;;;13.00;;
72785;SDS011;60902;53.876;10.674;2023-05-02T00:44:04;19.98;;;12.32;;
72785;SDS011;60902;53.876;10.674;2023-05-02T00:44:14;19.42;;;12.02;;
72785;SDS011;60902;53.876;10.674;2023-05-02T00:44:26;18.17;;;12.23;;
72785;SDS011;60902;53.876;10.674;2023-05-02T00:44:37;18.02;;;12.35;;
72785;SDS011;60902;53.876;10.674;2023-05-02T00:44:49;17.73;;;11.82;;
72785;SDS011;60902;53.876;10.674;2023-05-02T00:45:00;17.98;;;11.63;;
72785;SDS011;60902;53.876;10.674;2023-05-02T00:45:13;18.73;;;12.10;;
72785;SDS011;60902;53.876;10.674;2023-05-02T00:45:25;18.50;;;11.98;;
72785;SDS011;60902;53.876;10.674;2023-05-02T00:45:37;18.50;;;11.25;;
72785;SDS011;60902;53.876;10.674;2023-05-02T00:45:49;17.88;;;11.18;;
72785;SDS011;60902;53.876;10.674;2023-05-02T00:46:01;17.43;;;11.27;;
72785;SDS011;60902;53.876;10.674;2023-05-02T00:46:13;16.85;;;11.50;;
72785;SDS011;60902;53.876;10.674;2023-05-02T00:46:24;17.85;;;11.88;;
72785;SDS011;60902;53.876;10.674;2023-05-02T00:46:35;18.23;;;11.85;;
72785;SDS011;60902;53.876;10.674;2023-05-02T00:46:47;18.25;;;11.57;;
72785;SDS011;60902;53.876;10.674;2023-05-02T00:46:59;17.05;;;11.07;;
72785;SDS011;60902;53.876;10.674;2023-05-02T00:47:11;16.98;;;10.98;;
72785;SDS011;60902;53.876;10.674;2023-05-02T00:47:23;17.48;;;11.63;;
72785;SDS011;60902;53.876;10.674;2023-05-02T00:47:34;18.23;;;11.95;;
72785;SDS011;60902;53.876;10.674;2023-05-02T00:47:45;18.38;;;11.73;;
72785;SDS011;60902;53.876;10.674;2023-05-02T00:47:58;18.25;;;11.63;;
72785;SDS011;60902;53.876;10.674;2023-05-02T00:48:09;17.48;;;11.43;;
72785;SDS011;60902;53.876;10.674;2023-05-02T00:48:21;17.45;;;11.85;;
72785;SDS011;60902;53.876;10.674;2023-05-02T00:48:32;18.20;;;11.95;;
72785;SDS011;60902;53.876;10.674;2023-05-02T00:48:44;18.25;;;12.18;;
72785;SDS011;60902;53.876;10.674;2023-05-02T00:48:55;18.58;;;12.07;;
72785;SDS011;60902;53.876;10.674;2023-05-02T00:49:06;17.55;;;11.80;;
72785;SDS011;60902;53.876;10.674;2023-05-02T00:49:19;17.00;;;11.82;;
72785;SDS011;60902;53.876;10.674;2023-05-02T00:49:30;18.55;;;12.00;;
72785;SDS011;60902;53.876;10.674;2023-05-02T00:49:41;19.42;;;12.35;;
72785;SDS011;60902;53.876;10.674;2023-05-02T00:49:52;19.70;;;12.10;;
72785;SDS011;60902;53.876;10.674;2023-05-02T00:50:03;18.52;;;12.23;;
72785;SDS011;60902;53.876;10.674;2023-05-02T00:50:15;18.33;;;12.18;;
72785;SDS011;60902;53.876;10.674;2023-05-02T00:50:27;18.38;;;11.98;;
72785;SDS011;60902;53.876;10.674;2023-05-02T00:50:41;17.95;;;11.57;;
72785;SDS011;60902;53.876;10.674;2023-05-02T00:50:52;18.00;;;10.93;;
72785;SDS011;60902;53.876;10.674;2023-05-02T00:51:04;17.30;;;10.48;;
72785;SDS011;60902;53.876;10.674;2023-05-02T00:51:17;16.85;;;10.45;;
72785;SDS011;60902;53.876;10.674;2023-05-02T00:51:28;17.50;;;11.57;;
72785;SDS011;60902;53.876;10.674;2023-05-02T00:51:42;19.27;;;11.98;;
72785;SDS011;60902;53.876;10.674;2023-05-02T00:51:53;19.65;;;11.85;;
72785;SDS011;60902;53.876;10.674;2023-05-02T00:52:04;20.58;;;12.32;;
72785;SDS011;60902;53.876;10.674;2023-05-02T00:52:16;20.05;;;12.27;;
72785;SDS011;60902;53.876;10.674;2023-05-02T00:52:28;18.58;;;11.63;;
72785;SDS011;60902;53.876;10.674;2023-05-02T00:52:39;16.25;;;10.25;;
72785;SDS011;60902;53.876;10.674;2023-05-02T00:52:51;16.17;;;10.32;;
72785;SDS011;60902;53.876;10.674;2023-05-02T00:53:04;18.13;;;11.80;;
72785;SDS011;60902;53.876;10.674;2023-05-02T00:53:16;17.90;;;12.05;;
72785;SDS011;60902;53.876;10.674;2023-05-02T00:53:27;16.63;;;11.27;;
72785;SDS011;60902;53.876;10.674;2023-05-02T00:53:38;16.75;;;10.88;;
72785;SDS011;60902;53.876;10.674;2023-05-02T00:53:50;18.20;;;11.38;;
72785;SDS011;60902;53.876;10.674;2023-05-02T00:54:02;18.75;;;11.80;;
72785;SDS011;60902;53.876;10.674;2023-05-02T00:54:15;17.75;;;12.05;;
72785;SDS011;60902;53.876;10.674;2023-05-02T00:54:26;17.52;;;11.98;;
72785;SDS011;60902;53.876;10.674;2023-05-02T00:54:37;17.52;;;11.32;;
72785;SDS011;60902;53.876;10.674;2023-05-02T00:54:49;18.25;;;11.50;;
72785;SDS011;60902;53.876;10.674;2023-05-02T00:55:01;17.83;;;11.73;;
72785;SDS011;60902;53.876;10.674;2023-05-02T00:55:12;17.50;;;11.93;;
72785;SDS011;60902;53.876;10.674;2023-05-02T00:55:23;18.00;;;11.77;;
72785;SDS011;60902;53.876;10.674;2023-05-02T00:55:36;19.15;;;12.20;;
72785;SDS011;60902;53.876;10.674;2023-05-02T00:55:47;18.63;;;12.15;;
72785;SDS011;60902;53.876;10.674;2023-05-02T00:55:58;17.08;;;12.00;;
72785;SDS011;60902;53.876;10.674;2023-05-02T00:56:09;17.15;;;12.38;;
72785;SDS011;60902;53.876;10.674;2023-05-02T00:56:20;17.70;;;12.18;;
72785;SDS011;60902;53.876;10.674;2023-05-02T00:56:32;18.80;;;12.15;;
72785;SDS011;60902;53.876;10.674;2023-05-02T00:56:42;18.02;;;11.15;;
72785;SDS011;60902;53.876;10.674;2023-05-02T00:56:55;15.55;;;10.25;;
72785;SDS011;60902;53.876;10.674;2023-05-02T00:57:06;16.25;;;10.35;;
72785;SDS011;60902;53.876;10.674;2023-05-02T00:57:17;18.13;;;11.13;;
72785;SDS011;60902;53.876;10.674;2023-05-02T00:57:28;18.63;;;11.50;;
72785;SDS011;60902;53.876;10.674;2023-05-02T00:57:42;17.85;;;11.88;;
72785;SDS011;60902;53.876;10.674;2023-05-02T00:57:52;19.52;;;12.10;;
72785;SDS011;60902;53.876;10.674;2023-05-02T00:58:04;19.73;;;12.43;;
72785;SDS011;60902;53.876;10.674;2023-05-02T00:58:17;19.27;;;12.45;;
72785;SDS011;60902;53.876;10.674;2023-05-02T00:58:30;18.27;;;12.40;;
72785;SDS011;60902;53.876;10.674;2023-05-02T00:58:43;17.88;;;12.20;;
72785;SDS011;60902;53.876;10.674;2023-05-02T00:58:56;18.33;;;11.98;;
72785;SDS011;60902;53.876;10.674;2023-05-02T00:59:07;20.10;;;12.00;;
72785;SDS011;60902;53.876;10.674;2023-05-02T00:59:20;20.20;;;11.98;;
72785;SDS011;60902;53.876;10.674;2023-05-02T00:59:31;19.13;;;11.70;;
72785;SDS011;60902;53.876;10.674;2023-05-02T00:59:45;17.23;;;10.80;;
72785;SDS011;60902;53.876;10.674;2023-05-02T00:59:56;17.13;;;10.80;;
72785;SDS011;60902;53.876;10.674;2023-05-02T01:00:08;16.60;;;10.63;;
72785;SDS011;60902;53.876;10.674;2023-05-02T01:00:20;16.98;;;10.82;;
72785;SDS011;60902;53.876;10.674;2023-05-02T01:00:41;17.38;;;10.65;;
72785;SDS011;60902;53.876;10.674;2023-05-02T01:01:03;18.48;;;11.60;;
72785;SDS011;60902;53.876;10.674;2023-05-02T01:01:27;18.17;;;11.95;;
72785;SDS011;60902;53.876;10.674;2023-05-02T01:01:49;19.80;;;11.98;;
72785;SDS011;60902;53.876;10.674;2023-05-02T01:02:17;18.83;;;11.88;;
72785;SDS011;60902;53.876;10.674;2023-05-02T01:02:42;17.50;;;12.07;;
72785;SDS011;60902;53.876;10.674;2023-05-02T01:03:04;18.67;;;12.77;;
72785;SDS011;60902;53.876;10.674;2023-05-02T01:03:29;20.55;;;12.52;;
72785;SDS011;60902;53.876;10.674;2023-05-02T01:03:50;18.42;;;11.70;;
72785;SDS011;60902;53.876;10.674;2023-05-02T01:04:15;18.63;;;13.00;;
72785;SDS011;60902;53.876;10.674;2023-05-02T01:04:36;20.05;;;13.00;;
72785;SDS011;60902;53.876;10.674;2023-05-02T01:04:58;18.30;;;11.63;;
72785;SDS011;60902;53.876;10.674;2023-05-02T01:05:13;16.48;;;11.07;;
72785;SDS011;60902;53.876;10.674;2023-05-02T01:05:27;17.33;;;11.43;;
72785;SDS011;60902;53.876;10.674;2023-05-02T01:05:48;18.88;;;12.55;;
72785;SDS011;60902;53.876;10.674;2023-05-02T01:06:09;18.00;;;12.32;;
72785;SDS011;60902;53.876;10.674;2023-05-02T01:06:30;18.55;;;12.18;;
72785;SDS011;60902;53.876;10.674;2023-05-02T01:06:52;18.42;;;12.13;;
72785;SDS011;60902;53.876;10.674;2023-05-02T01:07:15;19.98;;;12.48;;
72785;SDS011;60902;53.876;10.674;2023-05-02T01:07:59;20.15;;;12.05;;
72785;SDS011;60902;53.876;10.674;2023-05-02T01:08:23;19.35;;;13.02;;
72785;SDS011;60902;53.876;10.674;2023-05-02T01:08:44;18.88;;;13.00;;
72785;SDS011;60902;53.876;10.674;2023-05-02T01:09:06;20.50;;;13.13;;
72785;SDS011;60902;53.876;10.674;2023-05-02T01:09:33;17.38;;;11.80;;
72785;SDS011;60902;53.876;10.674;2023-05-02T01:09:56;18.88;;;13.13;;
72785;SDS011;60902;53.876;10.674;2023-05-02T01:10:18;19.65;;;12.85;;
72785;SDS011;60902;53.876;10.674;2023-05-02T01:10:42;21.27;;;13.00;;
72785;SDS011;60902;53.876;10.674;2023-05-02T01:10:59;20.80;;;14.15;;
72785;SDS011;60902;53.876;10.674;2023-05-02T01:11:22;19.38;;;13.13;;
72785;SDS011;60902;53.876;10.674;2023-05-02T01:11:43;16.60;;;11.70;;
72785;SDS011;60902;53.876;10.674;2023-05-02T01:11:59;14.20;;;10.07;;
72785;SDS011;60902;53.876;10.674;2023-05-02T01:12:14;14.15;;;9.25;;
72785;SDS011;60902;53.876;10.674;2023-05-02T01:12:36;17.63;;;10.63;;
72785;SDS011;60902;53.876;10.674;2023-05-02T01:12:53;19.58;;;12.15;;